Allerton, Illinois
Current Conditions -  °F | °C
As of 11:53 PM on Sunday 25 Jan 2015 (Local Time) from KCMI Reporting Station
Overcast Overcast  
Wind Chill: -9°   Ceiling: 1600
Heat Index: -2°   Visibility: 10mi
Dew Point: -5°   Wind: 15mph
Humidity: 81%   Direction: 10°N
Pressure: 29.95"   Gusts: NA
Location:  39.91°N, 87.94°W
Report Text: KCMI 260553Z AUTO 01013KT 10SM OVC016 M02/M05 A2995 RMK AO2 SLP148 60000 T10221050 10000 21022 400331022 51021
Loading
Personal Weather Stations






























Interactive Weather Map New forecast layout! Learn more

10-Day Weather Forecast

Advertisements
Track Severe Weather on mobile